KCAD/CAD METAR and TAF weather

Enter ICAO airport designator
Station Type Date Time Source
KCAD METAR 2019/08/25 07:15 UTC NOAA

KCAD 250715Z AUTO 00000KT 10SM CLR 12/11 A3026 RMK AO2 T01280113


Station Type Date Time Source
KCAD Decoded METAR 2019/08/25 07:15 UTC NOAA

Station name not available
Aug 25, 2019 - 03:15 AM EDT / 2019.08.25 0715 UTC
Wind: Calm:0
Visibility: 10 mile(s):0
Sky conditions: clear
Temperature: 55.0 F (12.8 C)
Dew Point: 52.3 F (11.3 C)
Relative Humidity: 90%
Pressure (altimeter): 30.26 in. Hg (1024 hPa)
ob: KCAD 250715Z AUTO 00000KT 10SM CLR 12/11 A3026 RMK AO2 T01280113
cycle: 7

Station Type Date Time Source
KCAD TAF UTC NOAA

Error!

Example: see airport list